< < Back
Terminal Aerodrome Forecast


Current Version              Previous Versions:   1  2  3  4  5  6  7  8  9  

Terminal Aerodrome Forecast

780
FTUS42 KTAE 230500
TAFDHN
TAF
KDHN 230537Z 2306/2406 11006KT 6SM -RA OVC005
     FM231500 19012G20KT P6SM VCTS BKN015CB BKN030
     FM231800 18015G25KT 4SM TSRA BKN025CB
      TEMPO 2318/2321 VRB20G30KT 2SM +TSRA
     FM240000 20011KT P6SM OVC007=



Latest METAR

334
SAUS70 KWBC 230500 RRA
MTRDHN
METAR KDHN 230453Z AUTO 11006KT 8SM -RA OVC005 15/14 A3011 RMK AO2 CIG
004V010 SLP193 P0003 T01500144


USA.gov is the U.S. government's official web portal to all federal, state and local government web resources and services.